sensor_id;sensor_type;location;lat;lon;timestamp;temperature;humidity
19880;DHT22;10102;50.828;4.416;2023-09-07T00:00:21;22.20;99.90
19880;DHT22;10102;50.828;4.416;2023-09-07T00:02:46;22.20;99.90
19880;DHT22;10102;50.828;4.416;2023-09-07T00:05:12;22.20;99.90
19880;DHT22;10102;50.828;4.416;2023-09-07T00:07:40;22.20;99.90
19880;DHT22;10102;50.828;4.416;2023-09-07T00:10:07;22.20;99.90
19880;DHT22;10102;50.828;4.416;2023-09-07T00:12:34;22.10;99.90
19880;DHT22;10102;50.828;4.416;2023-09-07T00:15:00;22.00;99.90
19880;DHT22;10102;50.828;4.416;2023-09-07T00:17:25;22.00;99.90
19880;DHT22;10102;50.828;4.416;2023-09-07T00:19:52;21.90;99.90
19880;DHT22;10102;50.828;4.416;2023-09-07T00:22:20;21.90;99.90
19880;DHT22;10102;50.828;4.416;2023-09-07T00:24:46;22.00;99.90
19880;DHT22;10102;50.828;4.416;2023-09-07T00:27:11;22.00;99.90
19880;DHT22;10102;50.828;4.416;2023-09-07T00:29:38;22.10;99.90
19880;DHT22;10102;50.828;4.416;2023-09-07T00:32:05;22.00;99.90
19880;DHT22;10102;50.828;4.416;2023-09-07T00:34:31;22.00;99.90
19880;DHT22;10102;50.828;4.416;2023-09-07T00:36:56;21.90;99.90
19880;DHT22;10102;50.828;4.416;2023-09-07T00:39:29;21.80;99.90
19880;DHT22;10102;50.828;4.416;2023-09-07T00:41:56;21.60;99.90
19880;DHT22;10102;50.828;4.416;2023-09-07T00:44:24;21.40;99.90
19880;DHT22;10102;50.828;4.416;2023-09-07T00:46:50;21.40;99.90
19880;DHT22;10102;50.828;4.416;2023-09-07T00:49:16;21.30;99.90
19880;DHT22;10102;50.828;4.416;2023-09-07T00:51:42;21.30;99.90
19880;DHT22;10102;50.828;4.416;2023-09-07T00:54:08;21.40;99.90
19880;DHT22;10102;50.828;4.416;2023-09-07T00:56:34;21.40;99.90
19880;DHT22;10102;50.828;4.416;2023-09-07T00:59:01;21.70;99.90
19880;DHT22;10102;50.828;4.416;2023-09-07T01:01:28;21.40;99.90
19880;DHT22;10102;50.828;4.416;2023-09-07T01:03:55;21.40;99.90
19880;DHT22;10102;50.828;4.416;2023-09-07T01:06:32;21.70;99.90
19880;DHT22;10102;50.828;4.416;2023-09-07T01:09:03;21.20;99.90
19880;DHT22;10102;50.828;4.416;2023-09-07T01:11:37;21.40;99.90
19880;DHT22;10102;50.828;4.416;2023-09-07T01:16:30;21.40;99.90
19880;DHT22;10102;50.828;4.416;2023-09-07T01:19:08;21.00;99.90
19880;DHT22;10102;50.828;4.416;2023-09-07T01:21:36;17.80;99.90
19880;DHT22;10102;50.828;4.416;2023-09-07T01:24:05;20.90;99.90
19880;DHT22;10102;50.828;4.416;2023-09-07T01:26:31;21.30;99.90
19880;DHT22;10102;50.828;4.416;2023-09-07T01:28:57;21.00;99.90
19880;DHT22;10102;50.828;4.416;2023-09-07T01:31:23;21.00;99.90
19880;DHT22;10102;50.828;4.416;2023-09-07T01:33:49;21.00;99.90
19880;DHT22;10102;50.828;4.416;2023-09-07T01:38:43;20.90;99.90
19880;DHT22;10102;50.828;4.416;2023-09-07T01:41:09;20.70;99.90
19880;DHT22;10102;50.828;4.416;2023-09-07T01:43:37;20.60;99.90
19880;DHT22;10102;50.828;4.416;2023-09-07T01:46:03;20.60;99.90
19880;DHT22;10102;50.828;4.416;2023-09-07T01:48:29;20.50;99.90
19880;DHT22;10102;50.828;4.416;2023-09-07T01:50:55;20.50;99.90
19880;DHT22;10102;50.828;4.416;2023-09-07T01:53:20;20.40;99.90
19880;DHT22;10102;50.828;4.416;2023-09-07T01:55:46;20.30;99.90
19880;DHT22;10102;50.828;4.416;2023-09-07T01:58:13;20.40;99.90
19880;DHT22;10102;50.828;4.416;2023-09-07T02:00:41;20.60;99.90
19880;DHT22;10102;50.828;4.416;2023-09-07T02:03:07;20.50;99.90
19880;DHT22;10102;50.828;4.416;2023-09-07T02:05:33;20.30;99.90
19880;DHT22;10102;50.828;4.416;2023-09-07T02:07:59;20.40;99.90
19880;DHT22;10102;50.828;4.416;2023-09-07T02:10:25;20.50;99.90
19880;DHT22;10102;50.828;4.416;2023-09-07T02:12:51;20.30;99.90
19880;DHT22;10102;50.828;4.416;2023-09-07T02:15:17;20.30;99.90
19880;DHT22;10102;50.828;4.416;2023-09-07T02:17:43;20.10;99.90
19880;DHT22;10102;50.828;4.416;2023-09-07T02:20:11;20.20;99.90
19880;DHT22;10102;50.828;4.416;2023-09-07T02:22:38;20.30;99.90
19880;DHT22;10102;50.828;4.416;2023-09-07T02:25:04;20.50;99.90
19880;DHT22;10102;50.828;4.416;2023-09-07T02:27:33;20.30;99.90
19880;DHT22;10102;50.828;4.416;2023-09-07T02:30:01;20.60;99.90
19880;DHT22;10102;50.828;4.416;2023-09-07T02:32:27;20.50;99.90
19880;DHT22;10102;50.828;4.416;2023-09-07T02:34:53;20.50;99.90
19880;DHT22;10102;50.828;4.416;2023-09-07T02:37:19;20.30;99.90
19880;DHT22;10102;50.828;4.416;2023-09-07T02:39:45;20.30;99.90
19880;DHT22;10102;50.828;4.416;2023-09-07T02:42:11;20.00;99.90
19880;DHT22;10102;50.828;4.416;2023-09-07T02:44:37;19.90;99.90
19880;DHT22;10102;50.828;4.416;2023-09-07T02:47:04;20.10;99.90
19880;DHT22;10102;50.828;4.416;2023-09-07T02:49:31;20.00;99.90
19880;DHT22;10102;50.828;4.416;2023-09-07T02:51:57;20.30;99.90
19880;DHT22;10102;50.828;4.416;2023-09-07T02:54:23;20.10;99.90
19880;DHT22;10102;50.828;4.416;2023-09-07T02:56:50;20.10;99.90
19880;DHT22;10102;50.828;4.416;2023-09-07T02:59:16;20.00;99.90
19880;DHT22;10102;50.828;4.416;2023-09-07T03:01:43;19.70;99.90
19880;DHT22;10102;50.828;4.416;2023-09-07T03:04:09;19.80;99.90
19880;DHT22;10102;50.828;4.416;2023-09-07T03:06:34;20.10;99.90
19880;DHT22;10102;50.828;4.416;2023-09-07T03:09:00;20.00;99.90
19880;DHT22;10102;50.828;4.416;2023-09-07T03:11:26;20.00;99.90
19880;DHT22;10102;50.828;4.416;2023-09-07T03:13:52;19.80;99.90
19880;DHT22;10102;50.828;4.416;2023-09-07T03:16:18;19.50;99.90
19880;DHT22;10102;50.828;4.416;2023-09-07T03:18:46;19.50;99.90
19880;DHT22;10102;50.828;4.416;2023-09-07T03:21:12;19.50;99.90
19880;DHT22;10102;50.828;4.416;2023-09-07T03:23:38;19.40;99.90
19880;DHT22;10102;50.828;4.416;2023-09-07T03:26:09;19.30;99.90
19880;DHT22;10102;50.828;4.416;2023-09-07T03:28:37;19.60;99.90
19880;DHT22;10102;50.828;4.416;2023-09-07T03:31:03;19.50;99.90
19880;DHT22;10102;50.828;4.416;2023-09-07T03:33:30;19.50;99.90
19880;DHT22;10102;50.828;4.416;2023-09-07T03:35:56;19.60;99.90
19880;DHT22;10102;50.828;4.416;2023-09-07T03:40:52;19.30;99.90
19880;DHT22;10102;50.828;4.416;2023-09-07T03:43:18;19.30;99.90
19880;DHT22;10102;50.828;4.416;2023-09-07T03:45:44;19.30;99.90
19880;DHT22;10102;50.828;4.416;2023-09-07T03:48:10;19.50;99.90
19880;DHT22;10102;50.828;4.416;2023-09-07T03:50:35;19.10;99.90
19880;DHT22;10102;50.828;4.416;2023-09-07T03:53:02;19.40;99.90
19880;DHT22;10102;50.828;4.416;2023-09-07T03:55:28;19.30;99.90
19880;DHT22;10102;50.828;4.416;2023-09-07T03:57:54;19.30;99.90
19880;DHT22;10102;50.828;4.416;2023-09-07T04:00:20;19.20;99.90
19880;DHT22;10102;50.828;4.416;2023-09-07T04:02:46;19.40;99.90
19880;DHT22;10102;50.828;4.416;2023-09-07T04:05:12;19.40;99.90
19880;DHT22;10102;50.828;4.416;2023-09-07T04:07:39;19.40;99.90
19880;DHT22;10102;50.828;4.416;2023-09-07T04:10:07;19.30;99.90
19880;DHT22;10102;50.828;4.416;2023-09-07T04:12:34;19.20;99.90
19880;DHT22;10102;50.828;4.416;2023-09-07T04:15:04;19.30;99.90
19880;DHT22;10102;50.828;4.416;2023-09-07T04:17:29;18.90;99.90
19880;DHT22;10102;50.828;4.416;2023-09-07T04:19:55;19.00;99.90
19880;DHT22;10102;50.828;4.416;2023-09-07T04:22:21;19.10;99.90
19880;DHT22;10102;50.828;4.416;2023-09-07T04:24:49;19.10;99.90
19880;DHT22;10102;50.828;4.416;2023-09-07T04:27:15;19.10;99.90
19880;DHT22;10102;50.828;4.416;2023-09-07T04:29:41;19.30;99.90
19880;DHT22;10102;50.828;4.416;2023-09-07T04:32:07;19.20;99.90
19880;DHT22;10102;50.828;4.416;2023-09-07T04:34:32;19.20;99.90
19880;DHT22;10102;50.828;4.416;2023-09-07T04:36:59;18.80;99.90
19880;DHT22;10102;50.828;4.416;2023-09-07T04:39:26;18.80;99.90
19880;DHT22;10102;50.828;4.416;2023-09-07T04:41:52;18.80;99.90
19880;DHT22;10102;50.828;4.416;2023-09-07T04:44:19;18.70;99.90
19880;DHT22;10102;50.828;4.416;2023-09-07T04:46:45;18.70;99.90
19880;DHT22;10102;50.828;4.416;2023-09-07T04:49:11;18.60;99.90
19880;DHT22;10102;50.828;4.416;2023-09-07T04:51:43;18.70;99.90
19880;DHT22;10102;50.828;4.416;2023-09-07T04:54:10;18.30;99.90
19880;DHT22;10102;50.828;4.416;2023-09-07T04:56:35;18.30;99.90
19880;DHT22;10102;50.828;4.416;2023-09-07T04:59:01;18.50;99.90
19880;DHT22;10102;50.828;4.416;2023-09-07T05:01:27;18.40;99.90
19880;DHT22;10102;50.828;4.416;2023-09-07T05:03:54;18.70;99.90
19880;DHT22;10102;50.828;4.416;2023-09-07T05:06:20;18.50;99.90
19880;DHT22;10102;50.828;4.416;2023-09-07T05:08:48;18.60;99.90
19880;DHT22;10102;50.828;4.416;2023-09-07T05:11:15;18.40;99.90
19880;DHT22;10102;50.828;4.416;2023-09-07T05:13:41;18.50;99.90
19880;DHT22;10102;50.828;4.416;2023-09-07T05:16:06;18.50;99.90
19880;DHT22;10102;50.828;4.416;2023-09-07T05:18:32;18.60;99.90
19880;DHT22;10102;50.828;4.416;2023-09-07T05:20:58;18.90;99.90
19880;DHT22;10102;50.828;4.416;2023-09-07T05:23:25;18.70;99.90
19880;DHT22;10102;50.828;4.416;2023-09-07T05:25:53;18.60;99.90
19880;DHT22;10102;50.828;4.416;2023-09-07T05:28:20;18.50;99.90
19880;DHT22;10102;50.828;4.416;2023-09-07T05:30:48;18.40;99.90
19880;DHT22;10102;50.828;4.416;2023-09-07T05:33:15;18.40;99.90
19880;DHT22;10102;50.828;4.416;2023-09-07T05:35:43;18.50;99.90
19880;DHT22;10102;50.828;4.416;2023-09-07T05:38:12;18.70;99.90
19880;DHT22;10102;50.828;4.416;2023-09-07T05:40:40;18.80;99.90
19880;DHT22;10102;50.828;4.416;2023-09-07T05:43:06;18.70;99.90
19880;DHT22;10102;50.828;4.416;2023-09-07T05:45:35;18.80;99.90
19880;DHT22;10102;50.828;4.416;2023-09-07T05:48:03;18.80;99.90
19880;DHT22;10102;50.828;4.416;2023-09-07T05:50:29;19.00;99.90
19880;DHT22;10102;50.828;4.416;2023-09-07T05:52:55;18.80;99.90
19880;DHT22;10102;50.828;4.416;2023-09-07T05:55:20;18.90;99.90
19880;DHT22;10102;50.828;4.416;2023-09-07T05:57:48;18.70;99.90
19880;DHT22;10102;50.828;4.416;2023-09-07T06:00:14;18.70;99.90
19880;DHT22;10102;50.828;4.416;2023-09-07T06:02:43;18.60;99.90
19880;DHT22;10102;50.828;4.416;2023-09-07T06:05:09;18.70;99.90
19880;DHT22;10102;50.828;4.416;2023-09-07T06:07:36;18.80;99.90
19880;DHT22;10102;50.828;4.416;2023-09-07T06:10:02;19.20;99.90
19880;DHT22;10102;50.828;4.416;2023-09-07T06:12:28;19.20;99.90
19880;DHT22;10102;50.828;4.416;2023-09-07T06:14:53;19.20;99.90
19880;DHT22;10102;50.828;4.416;2023-09-07T06:17:19;19.30;99.90
19880;DHT22;10102;50.828;4.416;2023-09-07T06:19:46;19.40;99.90
19880;DHT22;10102;50.828;4.416;2023-09-07T06:22:12;19.20;99.90
19880;DHT22;10102;50.828;4.416;2023-09-07T06:24:37;19.30;99.90
19880;DHT22;10102;50.828;4.416;2023-09-07T06:27:04;19.40;99.90
19880;DHT22;10102;50.828;4.416;2023-09-07T06:29:29;19.60;99.90
19880;DHT22;10102;50.828;4.416;2023-09-07T06:31:55;19.50;99.90
19880;DHT22;10102;50.828;4.416;2023-09-07T06:34:21;19.60;99.90
19880;DHT22;10102;50.828;4.416;2023-09-07T06:36:47;19.70;99.90
19880;DHT22;10102;50.828;4.416;2023-09-07T06:39:14;19.90;99.90
19880;DHT22;10102;50.828;4.416;2023-09-07T06:41:40;19.90;99.90
19880;DHT22;10102;50.828;4.416;2023-09-07T06:44:07;19.80;99.90
19880;DHT22;10102;50.828;4.416;2023-09-07T06:46:33;20.00;99.90
19880;DHT22;10102;50.828;4.416;2023-09-07T06:48:59;20.20;99.90
19880;DHT22;10102;50.828;4.416;2023-09-07T06:51:25;20.00;99.90
19880;DHT22;10102;50.828;4.416;2023-09-07T06:53:52;20.30;99.90
19880;DHT22;10102;50.828;4.416;2023-09-07T06:56:18;20.20;99.90
19880;DHT22;10102;50.828;4.416;2023-09-07T07:01:11;20.50;99.90
19880;DHT22;10102;50.828;4.416;2023-09-07T07:03:36;20.70;99.90
19880;DHT22;10102;50.828;4.416;2023-09-07T07:06:02;20.80;99.90
19880;DHT22;10102;50.828;4.416;2023-09-07T07:08:28;20.60;99.90
19880;DHT22;10102;50.828;4.416;2023-09-07T07:10:54;20.80;99.90
19880;DHT22;10102;50.828;4.416;2023-09-07T07:13:20;20.50;99.90
19880;DHT22;10102;50.828;4.416;2023-09-07T07:15:46;20.80;99.90
19880;DHT22;10102;50.828;4.416;2023-09-07T07:18:12;20.90;99.90
19880;DHT22;10102;50.828;4.416;2023-09-07T07:20:40;20.90;99.90
19880;DHT22;10102;50.828;4.416;2023-09-07T07:23:06;21.00;99.90
19880;DHT22;10102;50.828;4.416;2023-09-07T07:25:35;21.30;99.90
19880;DHT22;10102;50.828;4.416;2023-09-07T07:28:01;21.20;99.90
19880;DHT22;10102;50.828;4.416;2023-09-07T07:30:35;21.40;99.90
19880;DHT22;10102;50.828;4.416;2023-09-07T07:33:03;21.40;99.90
19880;DHT22;10102;50.828;4.416;2023-09-07T07:35:30;21.50;99.90
19880;DHT22;10102;50.828;4.416;2023-09-07T07:37:56;21.60;99.90
19880;DHT22;10102;50.828;4.416;2023-09-07T07:40:22;21.60;99.90
19880;DHT22;10102;50.828;4.416;2023-09-07T07:42:51;21.80;99.90
19880;DHT22;10102;50.828;4.416;2023-09-07T07:45:17;21.70;99.90
19880;DHT22;10102;50.828;4.416;2023-09-07T07:47:45;21.90;99.90
19880;DHT22;10102;50.828;4.416;2023-09-07T07:50:11;21.80;99.90
19880;DHT22;10102;50.828;4.416;2023-09-07T07:52:37;22.10;99.90
19880;DHT22;10102;50.828;4.416;2023-09-07T07:55:04;22.20;99.90
19880;DHT22;10102;50.828;4.416;2023-09-07T07:57:31;22.20;99.90
19880;DHT22;10102;50.828;4.416;2023-09-07T07:59:58;22.30;99.90
19880;DHT22;10102;50.828;4.416;2023-09-07T08:02:24;22.60;99.90
19880;DHT22;10102;50.828;4.416;2023-09-07T08:04:52;22.40;99.90
19880;DHT22;10102;50.828;4.416;2023-09-07T08:07:19;22.60;99.90
19880;DHT22;10102;50.828;4.416;2023-09-07T08:09:47;22.60;99.90
19880;DHT22;10102;50.828;4.416;2023-09-07T08:12:14;22.60;99.90
19880;DHT22;10102;50.828;4.416;2023-09-07T08:14:40;22.80;99.90
19880;DHT22;10102;50.828;4.416;2023-09-07T08:17:06;22.90;99.90
19880;DHT22;10102;50.828;4.416;2023-09-07T08:19:34;23.10;99.90
19880;DHT22;10102;50.828;4.416;2023-09-07T08:22:00;23.20;99.90
19880;DHT22;10102;50.828;4.416;2023-09-07T08:24:29;23.40;99.90
19880;DHT22;10102;50.828;4.416;2023-09-07T08:26:57;23.50;99.90
19880;DHT22;10102;50.828;4.416;2023-09-07T08:29:27;23.60;99.90
19880;DHT22;10102;50.828;4.416;2023-09-07T08:31:56;23.50;99.90
19880;DHT22;10102;50.828;4.416;2023-09-07T08:34:23;23.80;99.90
19880;DHT22;10102;50.828;4.416;2023-09-07T08:39:16;23.90;99.90
19880;DHT22;10102;50.828;4.416;2023-09-07T08:41:43;24.10;99.90
19880;DHT22;10102;50.828;4.416;2023-09-07T08:44:10;24.10;99.90
19880;DHT22;10102;50.828;4.416;2023-09-07T08:46:37;24.20;99.90
19880;DHT22;10102;50.828;4.416;2023-09-07T08:49:03;24.40;99.90
19880;DHT22;10102;50.828;4.416;2023-09-07T08:51:30;24.30;99.90
19880;DHT22;10102;50.828;4.416;2023-09-07T08:53:57;24.50;99.90
19880;DHT22;10102;50.828;4.416;2023-09-07T08:56:24;24.60;99.90
19880;DHT22;10102;50.828;4.416;2023-09-07T08:58:50;24.80;99.90
19880;DHT22;10102;50.828;4.416;2023-09-07T09:01:16;25.00;99.90
19880;DHT22;10102;50.828;4.416;2023-09-07T09:03:42;25.10;99.90
19880;DHT22;10102;50.828;4.416;2023-09-07T09:06:10;25.00;99.90
19880;DHT22;10102;50.828;4.416;2023-09-07T09:08:47;25.00;99.90
19880;DHT22;10102;50.828;4.416;2023-09-07T09:11:15;25.00;99.90
19880;DHT22;10102;50.828;4.416;2023-09-07T09:13:41;25.20;99.90
19880;DHT22;10102;50.828;4.416;2023-09-07T09:16:08;25.30;99.90
19880;DHT22;10102;50.828;4.416;2023-09-07T09:18:35;25.30;99.90
19880;DHT22;10102;50.828;4.416;2023-09-07T09:21:01;25.40;99.90
19880;DHT22;10102;50.828;4.416;2023-09-07T09:23:35;25.60;99.90
19880;DHT22;10102;50.828;4.416;2023-09-07T09:26:16;25.90;99.90
19880;DHT22;10102;50.828;4.416;2023-09-07T09:28:42;25.50;99.90
19880;DHT22;10102;50.828;4.416;2023-09-07T09:31:11;25.80;99.90
19880;DHT22;10102;50.828;4.416;2023-09-07T09:33:50;26.30;99.90
19880;DHT22;10102;50.828;4.416;2023-09-07T09:36:33;26.00;99.90
19880;DHT22;10102;50.828;4.416;2023-09-07T09:39:00;26.20;99.90
19880;DHT22;10102;50.828;4.416;2023-09-07T09:41:26;26.10;99.90
19880;DHT22;10102;50.828;4.416;2023-09-07T09:43:53;26.30;99.90
19880;DHT22;10102;50.828;4.416;2023-09-07T09:46:22;26.30;99.90
19880;DHT22;10102;50.828;4.416;2023-09-07T09:48:50;26.60;99.90
19880;DHT22;10102;50.828;4.416;2023-09-07T09:51:18;26.80;99.90
19880;DHT22;10102;50.828;4.416;2023-09-07T09:53:44;26.80;99.90
19880;DHT22;10102;50.828;4.416;2023-09-07T09:56:11;26.80;99.90
19880;DHT22;10102;50.828;4.416;2023-09-07T09:58:37;26.90;99.90
19880;DHT22;10102;50.828;4.416;2023-09-07T10:01:04;27.10;99.90
19880;DHT22;10102;50.828;4.416;2023-09-07T10:03:33;27.30;99.90
19880;DHT22;10102;50.828;4.416;2023-09-07T10:06:18;27.40;99.90
19880;DHT22;10102;50.828;4.416;2023-09-07T10:08:59;27.50;99.90
19880;DHT22;10102;50.828;4.416;2023-09-07T10:11:35;27.50;99.90
19880;DHT22;10102;50.828;4.416;2023-09-07T10:14:05;27.70;99.90
19880;DHT22;10102;50.828;4.416;2023-09-07T10:19:20;28.00;99.90
19880;DHT22;10102;50.828;4.416;2023-09-07T10:21:46;28.00;99.90
19880;DHT22;10102;50.828;4.416;2023-09-07T10:24:27;28.30;99.90
19880;DHT22;10102;50.828;4.416;2023-09-07T10:27:04;28.20;99.90
19880;DHT22;10102;50.828;4.416;2023-09-07T10:29:41;28.30;99.90
19880;DHT22;10102;50.828;4.416;2023-09-07T10:32:08;28.30;99.90
19880;DHT22;10102;50.828;4.416;2023-09-07T10:34:36;28.30;99.90
19880;DHT22;10102;50.828;4.416;2023-09-07T10:37:12;28.50;99.90
19880;DHT22;10102;50.828;4.416;2023-09-07T10:39:40;28.60;99.90
19880;DHT22;10102;50.828;4.416;2023-09-07T10:42:29;29.20;99.90
19880;DHT22;10102;50.828;4.416;2023-09-07T10:44:55;29.20;99.90
19880;DHT22;10102;50.828;4.416;2023-09-07T10:47:21;29.50;99.90
19880;DHT22;10102;50.828;4.416;2023-09-07T10:49:47;29.90;99.90
19880;DHT22;10102;50.828;4.416;2023-09-07T10:52:16;30.40;99.90
19880;DHT22;10102;50.828;4.416;2023-09-07T10:54:41;31.20;99.90
19880;DHT22;10102;50.828;4.416;2023-09-07T10:57:10;32.20;99.90
19880;DHT22;10102;50.828;4.416;2023-09-07T10:59:36;33.40;99.90
19880;DHT22;10102;50.828;4.416;2023-09-07T11:02:05;35.70;99.90
19880;DHT22;10102;50.828;4.416;2023-09-07T11:04:32;38.20;99.90
19880;DHT22;10102;50.828;4.416;2023-09-07T11:06:58;40.60;94.70
19880;DHT22;10102;50.828;4.416;2023-09-07T11:09:24;41.90;88.60
19880;DHT22;10102;50.828;4.416;2023-09-07T11:11:51;43.00;80.50
19880;DHT22;10102;50.828;4.416;2023-09-07T11:14:17;44.40;77.00
19880;DHT22;10102;50.828;4.416;2023-09-07T11:16:42;45.60;69.80
19880;DHT22;10102;50.828;4.416;2023-09-07T11:19:08;46.40;64.50
19880;DHT22;10102;50.828;4.416;2023-09-07T11:21:35;47.00;63.20
19880;DHT22;10102;50.828;4.416;2023-09-07T11:24:02;47.80;60.90
19880;DHT22;10102;50.828;4.416;2023-09-07T11:26:44;47.80;57.50
19880;DHT22;10102;50.828;4.416;2023-09-07T11:29:15;48.70;57.20
19880;DHT22;10102;50.828;4.416;2023-09-07T11:31:41;49.10;54.20
19880;DHT22;10102;50.828;4.416;2023-09-07T11:34:15;49.70;54.70
19880;DHT22;10102;50.828;4.416;2023-09-07T11:36:43;50.20;51.90
19880;DHT22;10102;50.828;4.416;2023-09-07T11:39:10;50.40;51.10
19880;DHT22;10102;50.828;4.416;2023-09-07T11:41:43;48.90;50.90
19880;DHT22;10102;50.828;4.416;2023-09-07T11:44:09;48.80;51.70
19880;DHT22;10102;50.828;4.416;2023-09-07T11:46:35;49.10;51.10
19880;DHT22;10102;50.828;4.416;2023-09-07T11:49:02;49.90;51.30
19880;DHT22;10102;50.828;4.416;2023-09-07T11:51:30;50.10;50.20
19880;DHT22;10102;50.828;4.416;2023-09-07T11:53:56;50.90;49.40
19880;DHT22;10102;50.828;4.416;2023-09-07T11:56:23;51.10;48.60
19880;DHT22;10102;50.828;4.416;2023-09-07T11:58:49;50.60;47.70
19880;DHT22;10102;50.828;4.416;2023-09-07T12:01:15;49.60;48.60
19880;DHT22;10102;50.828;4.416;2023-09-07T12:03:44;50.00;48.30
19880;DHT22;10102;50.828;4.416;2023-09-07T12:06:11;51.10;48.20
19880;DHT22;10102;50.828;4.416;2023-09-07T12:08:37;52.30;46.30
19880;DHT22;10102;50.828;4.416;2023-09-07T12:11:03;52.60;46.50
19880;DHT22;10102;50.828;4.416;2023-09-07T12:13:29;53.50;46.30
19880;DHT22;10102;50.828;4.416;2023-09-07T12:15:55;53.00;44.40
19880;DHT22;10102;50.828;4.416;2023-09-07T12:18:26;52.80;44.70
19880;DHT22;10102;50.828;4.416;2023-09-07T12:20:52;52.50;45.60
19880;DHT22;10102;50.828;4.416;2023-09-07T12:23:19;53.00;45.40
19880;DHT22;10102;50.828;4.416;2023-09-07T12:25:46;53.40;44.60
19880;DHT22;10102;50.828;4.416;2023-09-07T12:28:16;53.20;44.20
19880;DHT22;10102;50.828;4.416;2023-09-07T12:30:43;53.20;44.30
19880;DHT22;10102;50.828;4.416;2023-09-07T12:33:12;53.60;43.40
19880;DHT22;10102;50.828;4.416;2023-09-07T12:35:38;53.70;43.70
19880;DHT22;10102;50.828;4.416;2023-09-07T12:38:06;54.10;43.40
19880;DHT22;10102;50.828;4.416;2023-09-07T12:40:32;53.50;43.10
19880;DHT22;10102;50.828;4.416;2023-09-07T12:42:58;52.60;43.50
19880;DHT22;10102;50.828;4.416;2023-09-07T12:45:24;52.40;43.20
19880;DHT22;10102;50.828;4.416;2023-09-07T12:47:50;52.60;44.10
19880;DHT22;10102;50.828;4.416;2023-09-07T12:50:16;53.20;42.90
19880;DHT22;10102;50.828;4.416;2023-09-07T12:52:42;52.40;45.50
19880;DHT22;10102;50.828;4.416;2023-09-07T12:55:08;53.40;44.70
19880;DHT22;10102;50.828;4.416;2023-09-07T12:57:37;53.70;43.00
19880;DHT22;10102;50.828;4.416;2023-09-07T13:00:04;53.70;42.40
19880;DHT22;10102;50.828;4.416;2023-09-07T13:02:31;54.00;42.70
19880;DHT22;10102;50.828;4.416;2023-09-07T13:04:58;54.80;42.40
19880;DHT22;10102;50.828;4.416;2023-09-07T13:07:24;54.90;41.40
19880;DHT22;10102;50.828;4.416;2023-09-07T13:09:50;55.20;41.50
19880;DHT22;10102;50.828;4.416;2023-09-07T13:12:16;54.60;41.90
19880;DHT22;10102;50.828;4.416;2023-09-07T13:14:42;55.60;41.70
19880;DHT22;10102;50.828;4.416;2023-09-07T13:17:12;55.80;40.70
19880;DHT22;10102;50.828;4.416;2023-09-07T13:19:42;56.00;41.00
19880;DHT22;10102;50.828;4.416;2023-09-07T13:22:09;54.80;41.50
19880;DHT22;10102;50.828;4.416;2023-09-07T13:24:38;55.70;41.20
19880;DHT22;10102;50.828;4.416;2023-09-07T13:27:04;55.60;40.30
19880;DHT22;10102;50.828;4.416;2023-09-07T13:29:30;55.80;40.80
19880;DHT22;10102;50.828;4.416;2023-09-07T13:31:57;55.60;41.00
19880;DHT22;10102;50.828;4.416;2023-09-07T13:34:25;54.50;41.90
19880;DHT22;10102;50.828;4.416;2023-09-07T13:36:51;51.70;43.50
19880;DHT22;10102;50.828;4.416;2023-09-07T13:39:17;48.20;47.10
19880;DHT22;10102;50.828;4.416;2023-09-07T13:41:44;45.20;50.50
19880;DHT22;10102;50.828;4.416;2023-09-07T13:44:13;43.30;53.10
19880;DHT22;10102;50.828;4.416;2023-09-07T13:46:41;41.70;54.80
19880;DHT22;10102;50.828;4.416;2023-09-07T13:49:09;40.10;57.20
19880;DHT22;10102;50.828;4.416;2023-09-07T13:51:35;38.40;60.00
19880;DHT22;10102;50.828;4.416;2023-09-07T13:54:05;37.90;61.00
19880;DHT22;10102;50.828;4.416;2023-09-07T13:56:32;36.90;63.90
19880;DHT22;10102;50.828;4.416;2023-09-07T13:58:58;36.30;65.40
19880;DHT22;10102;50.828;4.416;2023-09-07T14:01:23;36.20;66.50
19880;DHT22;10102;50.828;4.416;2023-09-07T14:03:50;35.80;67.30
19880;DHT22;10102;50.828;4.416;2023-09-07T14:06:16;35.70;68.20
19880;DHT22;10102;50.828;4.416;2023-09-07T14:08:44;35.50;67.80
19880;DHT22;10102;50.828;4.416;2023-09-07T14:11:10;35.40;69.80
19880;DHT22;10102;50.828;4.416;2023-09-07T14:13:36;35.20;69.60
19880;DHT22;10102;50.828;4.416;2023-09-07T14:16:02;35.60;81.50
19880;DHT22;10102;50.828;4.416;2023-09-07T14:18:28;36.00;67.40
19880;DHT22;10102;50.828;4.416;2023-09-07T14:20:54;36.10;68.60
19880;DHT22;10102;50.828;4.416;2023-09-07T14:23:24;36.80;66.70
19880;DHT22;10102;50.828;4.416;2023-09-07T14:25:54;37.50;65.10
19880;DHT22;10102;50.828;4.416;2023-09-07T14:28:20;38.60;63.20
19880;DHT22;10102;50.828;4.416;2023-09-07T14:30:47;40.10;61.00
19880;DHT22;10102;50.828;4.416;2023-09-07T14:33:13;41.80;57.90
19880;DHT22;10102;50.828;4.416;2023-09-07T14:35:39;43.30;55.20
19880;DHT22;10102;50.828;4.416;2023-09-07T14:38:05;45.50;53.10
19880;DHT22;10102;50.828;4.416;2023-09-07T14:40:32;47.10;51.70
19880;DHT22;10102;50.828;4.416;2023-09-07T14:43:01;48.80;49.50
19880;DHT22;10102;50.828;4.416;2023-09-07T14:45:28;50.60;48.40
19880;DHT22;10102;50.828;4.416;2023-09-07T14:47:55;52.10;45.90
19880;DHT22;10102;50.828;4.416;2023-09-07T14:50:23;53.10;45.50
19880;DHT22;10102;50.828;4.416;2023-09-07T14:52:49;54.20;45.20
19880;DHT22;10102;50.828;4.416;2023-09-07T14:55:14;53.90;45.00
19880;DHT22;10102;50.828;4.416;2023-09-07T14:57:40;54.00;44.30
19880;DHT22;10102;50.828;4.416;2023-09-07T15:00:09;53.90;44.70
19880;DHT22;10102;50.828;4.416;2023-09-07T15:02:36;54.00;44.70
19880;DHT22;10102;50.828;4.416;2023-09-07T15:05:02;55.10;44.30
19880;DHT22;10102;50.828;4.416;2023-09-07T15:07:29;54.80;43.30
19880;DHT22;10102;50.828;4.416;2023-09-07T15:09:57;55.20;43.60
19880;DHT22;10102;50.828;4.416;2023-09-07T15:12:23;55.60;45.70
19880;DHT22;10102;50.828;4.416;2023-09-07T15:14:49;55.60;42.90
19880;DHT22;10102;50.828;4.416;2023-09-07T15:17:16;55.70;43.00
19880;DHT22;10102;50.828;4.416;2023-09-07T15:19:42;55.90;42.10
19880;DHT22;10102;50.828;4.416;2023-09-07T15:22:10;56.00;42.30
19880;DHT22;10102;50.828;4.416;2023-09-07T15:24:36;55.30;42.70
19880;DHT22;10102;50.828;4.416;2023-09-07T15:27:12;55.50;42.90
19880;DHT22;10102;50.828;4.416;2023-09-07T15:29:39;55.90;42.70
19880;DHT22;10102;50.828;4.416;2023-09-07T15:32:06;55.10;42.80
19880;DHT22;10102;50.828;4.416;2023-09-07T15:34:33;54.90;43.20
19880;DHT22;10102;50.828;4.416;2023-09-07T15:37:02;54.80;43.10
19880;DHT22;10102;50.828;4.416;2023-09-07T15:39:28;54.70;43.10
19880;DHT22;10102;50.828;4.416;2023-09-07T15:41:57;54.50;43.60
19880;DHT22;10102;50.828;4.416;2023-09-07T15:44:23;54.40;43.50